Time,TemperatureF,DewpointF,PressureIn,WindDirection,WindDirectionDegrees,WindSpeedMPH,WindSpeedGustMPH,Humidity,HourlyPrecipIn,Conditions,Clouds,dailyrainin,SoftwareType,DateUTC
2013-05-10 00:00:00,59.6,58.2,29.98,North,353,0.0,0.0,95,0.00,,,0.00,Wunderground v.1.13,2013-05-10 04:00:00,
2013-05-10 00:02:00,59.6,58.2,29.98,North,353,0.0,0.0,95,0.00,,,0.00,Wunderground v.1.13,2013-05-10 04:02:00,
2013-05-10 00:08:00,59.5,58.1,29.98,North,353,0.0,0.0,95,0.00,,,0.00,Wunderground v.1.13,2013-05-10 04:08:00,
2013-05-10 00:10:00,59.5,58.1,29.98,North,353,0.0,0.0,95,0.00,,,0.00,Wunderground v.1.13,2013-05-10 04:10:00,
2013-05-10 00:12:00,59.3,57.9,29.98,North,353,0.0,0.0,95,0.00,,,0.00,Wunderground v.1.13,2013-05-10 04:12:00,
2013-05-10 00:18:00,59.3,58.2,29.99,North,353,0.0,0.0,96,0.00,,,0.00,Wunderground v.1.13,2013-05-10 04:18:00,
2013-05-10 00:24:00,59.3,58.2,29.99,North,353,0.0,0.0,96,0.00,,,0.00,Wunderground v.1.13,2013-05-10 04:24:00,
2013-05-10 00:30:00,59.2,58.1,29.99,North,353,0.0,0.0,96,0.00,,,0.00,Wunderground v.1.13,2013-05-10 04:30:00,
2013-05-10 00:36:00,59.2,58.1,29.99,North,353,0.0,0.0,96,0.00,,,0.00,Wunderground v.1.13,2013-05-10 04:36:00,
2013-05-10 00:42:00,59.0,57.9,29.99,North,353,0.0,0.0,96,0.00,,,0.00,Wunderground v.1.13,2013-05-10 04:42:00,
2013-05-10 00:48:00,58.9,57.8,29.99,North,353,0.0,0.0,96,0.00,,,0.00,Wunderground v.1.13,2013-05-10 04:48:00,
2013-05-10 00:54:00,58.9,57.8,29.99,North,353,0.0,0.0,96,0.00,,,0.00,Wunderground v.1.13,2013-05-10 04:54:00,
2013-05-10 01:00:00,58.9,57.8,29.99,North,353,0.0,0.0,96,0.00,,,0.00,Wunderground v.1.13,2013-05-10 05:00:00,
2013-05-10 01:06:00,58.7,57.6,29.99,North,353,0.0,0.0,96,0.00,,,0.00,Wunderground v.1.13,2013-05-10 05:06:00,
2013-05-10 01:12:00,58.7,57.6,29.99,North,353,0.0,0.0,96,0.00,,,0.00,Wunderground v.1.13,2013-05-10 05:12:00,
2013-05-10 01:18:00,58.7,57.6,29.99,North,353,0.0,0.0,96,0.00,,,0.00,Wunderground v.1.13,2013-05-10 05:18:00,
2013-05-10 01:24:00,58.6,57.5,29.99,North,353,0.0,0.0,96,0.00,,,0.00,Wunderground v.1.13,2013-05-10 05:24:00,
2013-05-10 01:30:00,58.7,57.6,29.99,North,353,0.0,0.0,96,0.00,,,0.00,Wunderground v.1.13,2013-05-10 05:30:00,
2013-05-10 01:36:00,58.7,57.6,29.99,North,353,0.0,0.0,96,0.00,,,0.00,Wunderground v.1.13,2013-05-10 05:36:00,
2013-05-10 01:42:00,58.7,57.3,29.99,North,353,0.0,0.0,95,0.00,,,0.00,Wunderground v.1.13,2013-05-10 05:42:00,
2013-05-10 01:48:00,58.7,57.3,29.98,North,353,0.0,0.0,95,0.00,,,0.00,Wunderground v.1.13,2013-05-10 05:48:00,
2013-05-10 01:54:00,58.9,57.5,29.98,North,353,0.0,0.0,95,0.00,,,0.00,Wunderground v.1.13,2013-05-10 05:54:00,
2013-05-10 02:00:00,58.7,57.3,29.98,North,353,0.0,0.0,95,0.00,,,0.00,Wunderground v.1.13,2013-05-10 06:00:00,
2013-05-10 02:06:00,58.7,57.3,29.98,North,353,0.0,0.0,95,0.00,,,0.00,Wunderground v.1.13,2013-05-10 06:06:00,
2013-05-10 02:12:00,58.7,57.3,29.98,North,353,0.0,0.0,95,0.00,,,0.00,Wunderground v.1.13,2013-05-10 06:12:00,
2013-05-10 02:18:00,58.7,57.3,29.98,North,353,0.0,0.0,95,0.00,,,0.00,Wunderground v.1.13,2013-05-10 06:18:00,
2013-05-10 02:26:00,58.4,57.0,29.98,North,353,0.0,0.0,95,0.00,,,0.00,Wunderground v.1.13,2013-05-10 06:26:00,
2013-05-10 02:32:00,58.4,57.0,29.98,North,353,0.0,0.0,95,0.00,,,0.00,Wunderground v.1.13,2013-05-10 06:32:00,
2013-05-10 02:40:00,58.4,57.0,29.98,North,353,0.0,0.0,95,0.00,,,0.00,Wunderground v.1.13,2013-05-10 06:40:00,
2013-05-10 02:46:00,58.4,57.0,29.98,North,353,0.0,0.0,95,0.00,,,0.00,Wunderground v.1.13,2013-05-10 06:46:00,
2013-05-10 02:52:00,58.4,57.0,29.98,North,353,0.0,0.0,95,0.00,,,0.00,Wunderground v.1.13,2013-05-10 06:52:00,
2013-05-10 02:58:00,58.4,57.0,29.98,North,353,0.0,0.0,95,0.00,,,0.00,Wunderground v.1.13,2013-05-10 06:58:00,
2013-05-10 03:04:00,58.4,57.0,29.97,North,353,0.0,0.0,95,0.00,,,0.00,Wunderground v.1.13,2013-05-10 07:04:00,
2013-05-10 03:10:00,58.4,57.0,29.97,North,353,0.0,0.0,95,0.00,,,0.00,Wunderground v.1.13,2013-05-10 07:10:00,
2013-05-10 03:16:00,58.3,56.9,29.98,North,353,0.0,0.0,95,0.00,,,0.00,Wunderground v.1.13,2013-05-10 07:16:00,
2013-05-10 03:22:00,58.3,56.9,29.98,North,353,0.0,0.0,95,0.00,,,0.00,Wunderground v.1.13,2013-05-10 07:22:00,
2013-05-10 03:28:00,58.1,56.7,29.98,North,353,0.0,0.0,95,0.00,,,0.00,Wunderground v.1.13,2013-05-10 07:28:00,
2013-05-10 03:34:00,58.1,56.7,29.98,North,353,0.0,0.0,95,0.00,,,0.00,Wunderground v.1.13,2013-05-10 07:34:00,
2013-05-10 03:40:00,58.0,56.6,29.98,North,353,0.0,0.0,95,0.00,,,0.00,Wunderground v.1.13,2013-05-10 07:40:00,
2013-05-10 03:46:00,57.8,56.1,29.98,North,353,0.0,0.0,94,0.00,,,0.00,Wunderground v.1.13,2013-05-10 07:46:00,
2013-05-10 03:52:00,57.8,56.1,29.98,North,353,0.0,0.0,94,0.00,,,0.00,Wunderground v.1.13,2013-05-10 07:52:00,
2013-05-10 03:58:00,57.6,55.9,29.98,North,353,0.0,0.0,94,0.00,,,0.00,Wunderground v.1.13,2013-05-10 07:58:00,
2013-05-10 04:04:00,57.5,55.8,29.98,North,353,0.0,0.0,94,0.00,,,0.00,Wunderground v.1.13,2013-05-10 08:04:00,
2013-05-10 04:10:00,57.5,55.8,29.98,North,353,0.0,0.0,94,0.00,,,0.00,Wunderground v.1.13,2013-05-10 08:10:00,
2013-05-10 04:16:00,57.3,55.6,29.98,North,353,0.0,0.0,94,0.00,,,0.00,Wunderground v.1.13,2013-05-10 08:16:00,
2013-05-10 04:23:00,57.3,55.6,29.98,North,353,0.0,0.0,94,0.00,,,0.00,Wunderground v.1.13,2013-05-10 08:23:00,
2013-05-10 04:28:00,57.2,55.5,29.98,North,353,0.0,0.0,94,0.00,,,0.00,Wunderground v.1.13,2013-05-10 08:28:00,
2013-05-10 04:34:00,57.0,55.3,29.98,North,353,0.0,0.0,94,0.00,,,0.00,Wunderground v.1.13,2013-05-10 08:34:00,
2013-05-10 04:40:00,57.0,55.3,29.98,North,353,0.0,0.0,94,0.00,,,0.00,Wunderground v.1.13,2013-05-10 08:40:00,
2013-05-10 04:46:00,56.9,55.2,29.98,North,353,0.0,0.0,94,0.00,,,0.00,Wunderground v.1.13,2013-05-10 08:46:00,
2013-05-10 04:52:00,56.9,55.2,29.98,North,353,0.0,0.0,94,0.00,,,0.00,Wunderground v.1.13,2013-05-10 08:52:00,
2013-05-10 04:58:00,56.7,55.0,29.98,North,353,0.0,0.0,94,0.00,,,0.00,Wunderground v.1.13,2013-05-10 08:58:00,
2013-05-10 05:04:00,56.6,54.9,29.98,North,353,0.0,0.0,94,0.00,,,0.00,Wunderground v.1.13,2013-05-10 09:04:00,
2013-05-10 05:10:00,56.6,54.9,29.98,North,353,0.0,0.0,94,0.00,,,0.00,Wunderground v.1.13,2013-05-10 09:10:00,
2013-05-10 05:16:00,56.5,54.8,29.98,North,353,0.0,0.0,94,0.00,,,0.00,Wunderground v.1.13,2013-05-10 09:16:00,
2013-05-10 05:23:00,56.3,54.6,29.98,North,353,0.0,0.0,94,0.00,,,0.00,Wunderground v.1.13,2013-05-10 09:23:00,
2013-05-10 05:28:00,56.3,54.6,29.98,North,353,0.0,0.0,94,0.00,,,0.00,Wunderground v.1.13,2013-05-10 09:28:00,
2013-05-10 05:34:00,56.2,54.5,29.98,North,353,0.0,0.0,94,0.00,,,0.00,Wunderground v.1.13,2013-05-10 09:34:00,
2013-05-10 05:40:00,56.2,54.5,29.98,North,353,0.0,0.0,94,0.00,,,0.00,Wunderground v.1.13,2013-05-10 09:40:00,
2013-05-10 05:46:00,56.0,54.3,29.98,North,353,0.0,0.0,94,0.00,,,0.00,Wunderground v.1.13,2013-05-10 09:46:00,
2013-05-10 05:53:00,56.0,54.3,29.98,North,353,0.0,0.0,94,0.00,,,0.00,Wunderground v.1.13,2013-05-10 09:53:00,
2013-05-10 05:58:00,55.9,54.2,29.98,North,353,0.0,0.0,94,0.00,,,0.00,Wunderground v.1.13,2013-05-10 09:58:00,
2013-05-10 06:04:00,55.7,54.0,29.98,North,353,0.0,0.0,94,0.00,,,0.00,Wunderground v.1.13,2013-05-10 10:04:00,
2013-05-10 06:10:00,55.7,54.0,29.98,North,353,0.0,0.0,94,0.00,,,0.00,Wunderground v.1.13,2013-05-10 10:10:00,
2013-05-10 06:16:00,55.6,53.9,29.98,North,353,0.0,0.0,94,0.00,,,0.00,Wunderground v.1.13,2013-05-10 10:16:00,
2013-05-10 06:22:00,55.6,53.9,29.98,North,353,0.0,0.0,94,0.00,,,0.00,Wunderground v.1.13,2013-05-10 10:22:00,
2013-05-10 06:28:00,55.4,53.7,29.98,North,353,0.0,0.0,94,0.00,,,0.00,Wunderground v.1.13,2013-05-10 10:28:00,
2013-05-10 06:34:00,55.4,53.7,29.98,North,353,0.0,0.0,94,0.00,,,0.00,Wunderground v.1.13,2013-05-10 10:34:00,
2013-05-10 06:40:00,55.3,53.6,29.98,North,353,0.0,0.0,94,0.00,,,0.00,Wunderground v.1.13,2013-05-10 10:40:00,
2013-05-10 06:46:00,55.3,53.6,29.99,North,353,0.0,0.0,94,0.00,,,0.00,Wunderground v.1.13,2013-05-10 10:46:00,
2013-05-10 06:52:00,55.3,53.6,29.99,North,353,0.0,0.0,94,0.00,,,0.00,Wunderground v.1.13,2013-05-10 10:52:00,
2013-05-10 06:58:00,55.3,53.6,29.99,North,353,0.0,0.0,94,0.00,,,0.00,Wunderground v.1.13,2013-05-10 10:58:00,
2013-05-10 07:04:00,55.3,53.6,29.99,North,353,0.0,0.0,94,0.00,,,0.00,Wunderground v.1.13,2013-05-10 11:04:00,
2013-05-10 07:10:00,55.4,54.0,29.99,North,353,0.0,0.0,95,0.00,,,0.00,Wunderground v.1.13,2013-05-10 11:10:00,
2013-05-10 07:16:00,55.4,54.0,29.99,North,353,0.0,0.0,95,0.00,,,0.00,Wunderground v.1.13,2013-05-10 11:16:00,
2013-05-10 07:22:00,55.7,54.3,29.99,North,353,0.0,0.0,95,0.00,,,0.00,Wunderground v.1.13,2013-05-10 11:22:00,
2013-05-10 07:28:00,55.9,54.8,29.99,North,353,0.0,0.0,96,0.00,,,0.00,Wunderground v.1.13,2013-05-10 11:28:00,
2013-05-10 07:34:00,56.0,54.9,29.99,North,353,0.0,0.0,96,0.00,,,0.00,Wunderground v.1.13,2013-05-10 11:34:00,
2013-05-10 07:40:00,56.3,55.2,29.99,North,353,0.0,0.0,96,0.00,,,0.00,Wunderground v.1.13,2013-05-10 11:40:00,
2013-05-10 07:46:00,56.6,55.8,29.99,North,353,0.0,0.0,97,0.00,,,0.00,Wunderground v.1.13,2013-05-10 11:46:00,
2013-05-10 07:52:00,57.0,56.2,29.99,North,353,0.0,0.0,97,0.00,,,0.00,Wunderground v.1.13,2013-05-10 11:52:00,
2013-05-10 07:58:00,57.3,56.5,29.99,North,353,0.0,0.0,97,0.00,,,0.00,Wunderground v.1.13,2013-05-10 11:58:00,
2013-05-10 08:04:00,57.6,56.8,29.99,North,353,0.0,0.0,97,0.00,,,0.00,Wunderground v.1.13,2013-05-10 12:04:00,
2013-05-10 08:10:00,58.0,57.2,29.99,North,353,0.0,0.0,97,0.00,,,0.00,Wunderground v.1.13,2013-05-10 12:10:00,
2013-05-10 08:16:00,58.6,57.8,29.99,North,353,0.0,0.0,97,0.00,,,0.00,Wunderground v.1.13,2013-05-10 12:16:00,
2013-05-10 08:22:00,59.0,58.4,29.99,North,353,0.0,0.0,98,0.00,,,0.00,Wunderground v.1.13,2013-05-10 12:22:00,
2013-05-10 08:28:00,59.5,58.9,29.99,North,353,0.0,0.0,98,0.00,,,0.00,Wunderground v.1.13,2013-05-10 12:28:00,
2013-05-10 08:34:00,59.9,59.3,29.99,North,353,0.0,0.0,98,0.00,,,0.00,Wunderground v.1.13,2013-05-10 12:34:00,
2013-05-10 08:40:00,60.4,59.8,29.99,North,353,0.0,0.0,98,0.00,,,0.00,Wunderground v.1.13,2013-05-10 12:40:00,
2013-05-10 08:46:00,60.9,60.3,29.99,North,353,0.0,0.0,98,0.00,,,0.00,Wunderground v.1.13,2013-05-10 12:46:00,
2013-05-10 08:52:00,61.2,60.6,29.99,North,353,0.0,0.0,98,0.00,,,0.00,Wunderground v.1.13,2013-05-10 12:52:00,
2013-05-10 08:58:00,61.5,60.9,29.99,North,353,0.0,0.0,98,0.00,,,0.00,Wunderground v.1.13,2013-05-10 12:58:00,
2013-05-10 09:04:00,61.8,60.9,29.99,North,353,0.0,0.0,97,0.00,,,0.00,Wunderground v.1.13,2013-05-10 13:04:00,
2013-05-10 09:10:00,62.3,60.8,29.99,North,353,0.0,0.0,95,0.00,,,0.00,Wunderground v.1.13,2013-05-10 13:10:00,
2013-05-10 09:16:00,62.9,59.9,29.99,North,353,0.0,0.0,90,0.00,,,0.00,Wunderground v.1.13,2013-05-10 13:16:00,
2013-05-10 09:22:00,64.0,60.1,29.99,North,353,0.0,0.0,87,0.00,,,0.00,Wunderground v.1.13,2013-05-10 13:22:00,
2013-05-10 09:28:00,67.3,59.8,29.99,North,353,0.0,0.0,77,0.00,,,0.00,Wunderground v.1.13,2013-05-10 13:28:00,
2013-05-10 09:34:00,69.6,60.2,29.98,North,353,0.0,0.0,72,0.00,,,0.00,Wunderground v.1.13,2013-05-10 13:34:00,
2013-05-10 09:40:00,70.4,59.7,29.98,North,353,0.0,0.0,69,0.00,,,0.00,Wunderground v.1.13,2013-05-10 13:40:00,
2013-05-10 09:46:00,71.3,61.0,29.98,North,353,0.0,0.0,70,0.00,,,0.00,Wunderground v.1.13,2013-05-10 13:46:00,
2013-05-10 09:52:00,72.3,60.3,29.98,North,353,0.0,0.0,66,0.00,,,0.00,Wunderground v.1.13,2013-05-10 13:52:00,
2013-05-10 09:58:00,73.2,59.8,29.98,North,353,0.0,0.0,63,0.00,,,0.00,Wunderground v.1.13,2013-05-10 13:58:00,
2013-05-10 10:04:00,73.9,60.5,29.98,North,353,0.0,0.0,63,0.00,,,0.00,Wunderground v.1.13,2013-05-10 14:04:00,
2013-05-10 10:10:00,74.2,60.8,29.98,North,353,0.0,0.0,63,0.00,,,0.00,Wunderground v.1.13,2013-05-10 14:10:00,
2013-05-10 10:16:00,75.1,60.3,29.98,North,353,0.0,0.0,60,0.00,,,0.00,Wunderground v.1.13,2013-05-10 14:16:00,
2013-05-10 10:22:00,75.4,61.0,29.98,North,353,0.0,0.0,61,0.00,,,0.00,Wunderground v.1.13,2013-05-10 14:22:00,
2013-05-10 10:28:00,76.0,61.1,29.98,North,353,0.0,0.0,60,0.00,,,0.00,Wunderground v.1.13,2013-05-10 14:28:00,
2013-05-10 10:34:00,76.7,58.8,29.98,North,353,0.0,0.0,54,0.00,,,0.00,Wunderground v.1.13,2013-05-10 14:34:00,
2013-05-10 10:40:00,77.6,60.2,29.98,North,353,0.0,0.0,55,0.00,,,0.00,Wunderground v.1.13,2013-05-10 14:40:00,
2013-05-10 10:46:00,77.2,60.8,29.97,North,353,0.0,0.0,57,0.00,,,0.00,Wunderground v.1.13,2013-05-10 14:46:00,
2013-05-10 10:53:00,78.5,60.5,29.97,North,353,0.0,0.0,54,0.00,,,0.00,Wunderground v.1.13,2013-05-10 14:53:00,
2013-05-10 10:58:00,78.1,61.1,29.97,North,353,0.0,0.0,56,0.00,,,0.00,Wunderground v.1.13,2013-05-10 14:58:00,
2013-05-10 11:04:00,78.8,60.2,29.97,North,353,0.0,0.0,53,0.00,,,0.00,Wunderground v.1.13,2013-05-10 15:04:00,
2013-05-10 11:10:00,79.4,61.3,29.97,North,353,0.0,0.0,54,0.00,,,0.00,Wunderground v.1.13,2013-05-10 15:10:00,
2013-05-10 11:16:00,79.2,61.1,29.98,North,353,0.0,0.0,54,0.00,,,0.00,Wunderground v.1.13,2013-05-10 15:16:00,
2013-05-10 11:23:00,79.6,62.0,29.98,North,353,0.0,0.0,55,0.00,,,0.00,Wunderground v.1.13,2013-05-10 15:23:00,
2013-05-10 11:28:00,79.8,60.1,29.98,North,353,0.0,0.0,51,0.00,,,0.00,Wunderground v.1.13,2013-05-10 15:28:00,
2013-05-10 11:34:00,80.3,60.0,29.97,North,353,0.0,0.0,50,0.00,,,0.00,Wunderground v.1.13,2013-05-10 15:34:00,
2013-05-10 11:40:00,80.9,59.4,29.97,NW,311,0.0,0.0,48,0.00,,,0.00,Wunderground v.1.13,2013-05-10 15:40:00,
2013-05-10 11:46:00,81.1,59.0,29.96,NW,313,0.0,0.0,47,0.00,,,0.00,Wunderground v.1.13,2013-05-10 15:46:00,
2013-05-10 11:53:00,80.9,61.6,29.96,NW,313,0.0,0.0,52,0.00,,,0.00,Wunderground v.1.13,2013-05-10 15:53:00,
2013-05-10 11:58:00,81.4,59.8,29.96,SSW,196,0.0,0.0,48,0.00,,,0.00,Wunderground v.1.13,2013-05-10 15:58:00,
2013-05-10 12:06:00,82.2,61.7,29.95,NNW,339,0.0,0.0,50,0.00,,,0.00,Wunderground v.1.13,2013-05-10 16:06:00,
2013-05-10 12:12:00,81.8,61.3,29.95,NNW,337,0.0,0.0,50,0.00,,,0.00,Wunderground v.1.13,2013-05-10 16:12:00,
2013-05-10 12:18:00,81.4,59.2,29.95,NNW,337,0.0,0.0,47,0.00,,,0.00,Wunderground v.1.13,2013-05-10 16:18:00,
2013-05-10 12:24:00,81.2,61.4,29.95,WSW,257,0.0,0.0,51,0.00,,,0.00,Wunderground v.1.13,2013-05-10 16:24:00,
2013-05-10 12:30:00,82.0,61.0,29.95,SSE,164,0.0,0.0,49,0.00,,,0.00,Wunderground v.1.13,2013-05-10 16:30:00,
2013-05-10 12:36:00,82.6,58.5,29.95,South,169,0.0,0.0,44,0.00,,,0.00,Wunderground v.1.13,2013-05-10 16:36:00,
2013-05-10 12:42:00,82.0,58.6,29.95,South,169,0.0,0.0,45,0.00,,,0.00,Wunderground v.1.13,2013-05-10 16:42:00,
2013-05-10 12:48:00,82.4,59.5,29.95,SW,215,0.0,0.0,46,0.00,,,0.00,Wunderground v.1.13,2013-05-10 16:48:00,
2013-05-10 12:54:00,83.4,60.4,29.95,NW,306,0.0,0.0,46,0.00,,,0.00,Wunderground v.1.13,2013-05-10 16:54:00,
2013-05-10 13:00:00,83.2,59.0,29.95,SW,232,0.0,0.0,44,0.00,,,0.00,Wunderground v.1.13,2013-05-10 17:00:00,
2013-05-10 13:06:00,83.8,58.9,29.95,West,272,0.0,0.0,43,0.00,,,0.00,Wunderground v.1.13,2013-05-10 17:06:00,
2013-05-10 13:12:00,84.0,60.4,29.95,West,272,0.0,0.0,45,0.00,,,0.00,Wunderground v.1.13,2013-05-10 17:12:00,
2013-05-10 13:18:00,84.1,60.5,29.95,WNW,294,0.0,0.0,45,0.00,,,0.00,Wunderground v.1.13,2013-05-10 17:18:00,
2013-05-10 13:24:00,84.0,60.4,29.95,North,357,0.0,0.0,45,0.00,,,0.00,Wunderground v.1.13,2013-05-10 17:24:00,
2013-05-10 13:30:00,83.8,60.2,29.95,WNW,291,0.0,0.0,45,0.00,,,0.00,Wunderground v.1.13,2013-05-10 17:30:00,
2013-05-10 13:36:00,83.4,59.8,29.94,West,260,0.0,2.0,45,0.00,,,0.00,Wunderground v.1.13,2013-05-10 17:36:00,
2013-05-10 13:42:00,83.6,63.0,29.94,WNW,285,0.0,0.0,50,0.00,,,0.00,Wunderground v.1.13,2013-05-10 17:42:00,
2013-05-10 13:48:00,83.2,59.6,29.93,WNW,285,0.0,0.0,45,0.00,,,0.00,Wunderground v.1.13,2013-05-10 17:48:00,
2013-05-10 13:54:00,83.4,61.1,29.93,WNW,285,0.0,0.0,47,0.00,,,0.00,Wunderground v.1.13,2013-05-10 17:54:00,
2013-05-10 14:00:00,83.4,61.7,29.93,SSE,154,0.0,0.0,48,0.00,,,0.00,Wunderground v.1.13,2013-05-10 18:00:00,
2013-05-10 14:06:00,83.8,59.6,29.93,WNW,291,0.0,0.0,44,0.00,,,0.00,Wunderground v.1.13,2013-05-10 18:06:00,
2013-05-10 14:12:00,84.1,59.2,29.93,WNW,289,0.0,0.0,43,0.00,,,0.00,Wunderground v.1.13,2013-05-10 18:12:00,
2013-05-10 14:18:00,84.0,61.6,29.93,ENE,69,0.0,0.0,47,0.00,,,0.00,Wunderground v.1.13,2013-05-10 18:18:00,
2013-05-10 14:24:00,84.5,60.2,29.93,ENE,78,0.0,0.0,44,0.00,,,0.00,Wunderground v.1.13,2013-05-10 18:24:00,
2013-05-10 14:30:00,84.3,59.4,29.93,WNW,292,0.0,0.0,43,0.00,,,0.00,Wunderground v.1.13,2013-05-10 18:30:00,
2013-05-10 14:36:00,84.3,59.4,29.92,WNW,302,0.0,0.0,43,0.00,,,0.00,Wunderground v.1.13,2013-05-10 18:36:00,
2013-05-10 14:42:00,84.7,59.1,29.92,NW,306,1.0,1.0,42,0.00,,,0.00,Wunderground v.1.13,2013-05-10 18:42:00,
2013-05-10 14:48:00,84.1,60.5,29.91,West,277,1.0,1.0,45,0.00,,,0.00,Wunderground v.1.13,2013-05-10 18:48:00,
2013-05-10 14:54:00,84.0,61.0,29.91,NNW,346,0.0,0.0,46,0.00,,,0.00,Wunderground v.1.13,2013-05-10 18:54:00,
2013-05-10 15:00:00,84.0,58.4,29.91,West,274,0.0,4.0,42,0.00,,,0.00,Wunderground v.1.13,2013-05-10 19:00:00,
2013-05-10 15:06:00,83.8,62.0,29.91,NNW,329,0.0,0.0,48,0.00,,,0.00,Wunderground v.1.13,2013-05-10 19:06:00,
2013-05-10 15:12:00,84.0,59.1,29.91,South,179,0.0,0.0,43,0.00,,,0.00,Wunderground v.1.13,2013-05-10 19:12:00,
2013-05-10 15:18:00,84.5,60.2,29.91,NW,322,0.0,1.0,44,0.00,,,0.00,Wunderground v.1.13,2013-05-10 19:18:00,
2013-05-10 15:24:00,84.5,57.5,29.91,WNW,299,0.0,0.0,40,0.00,,,0.00,Wunderground v.1.13,2013-05-10 19:24:00,
2013-05-10 15:30:00,84.3,60.0,29.91,WSW,247,0.0,3.0,44,0.00,,,0.00,Wunderground v.1.13,2013-05-10 19:30:00,
2013-05-10 15:36:00,83.8,61.4,29.90,SE,144,0.0,0.0,47,0.00,,,0.00,Wunderground v.1.13,2013-05-10 19:36:00,
2013-05-10 15:42:00,83.8,59.6,29.90,South,175,0.0,1.0,44,0.00,,,0.00,Wunderground v.1.13,2013-05-10 19:42:00,
2013-05-10 15:48:00,83.6,58.7,29.90,West,274,0.0,0.0,43,0.00,,,0.00,Wunderground v.1.13,2013-05-10 19:48:00,
2013-05-10 15:54:00,83.8,60.8,29.90,NNE,13,0.0,0.0,46,0.00,,,0.00,Wunderground v.1.13,2013-05-10 19:54:00,
2013-05-10 16:00:00,83.6,58.1,29.90,SW,230,0.0,0.0,42,0.00,,,0.00,Wunderground v.1.13,2013-05-10 20:00:00,
2013-05-10 16:06:00,83.6,60.6,29.90,South,172,0.0,0.0,46,0.00,,,0.00,Wunderground v.1.13,2013-05-10 20:06:00,
2013-05-10 16:12:00,83.6,57.4,29.90,NNE,25,0.0,0.0,41,0.00,,,0.00,Wunderground v.1.13,2013-05-10 20:12:00,
2013-05-10 16:18:00,83.6,58.7,29.89,WNW,301,0.0,0.0,43,0.00,,,0.00,Wunderground v.1.13,2013-05-10 20:18:00,
2013-05-10 16:24:00,83.6,58.7,29.89,NW,313,0.0,0.0,43,0.00,,,0.00,Wunderground v.1.13,2013-05-10 20:24:00,
2013-05-10 16:30:00,83.4,58.6,29.89,NE,34,0.0,1.0,43,0.00,,,0.00,Wunderground v.1.13,2013-05-10 20:30:00,
2013-05-10 16:36:00,83.8,58.3,29.89,NNW,343,0.0,0.0,42,0.00,,,0.00,Wunderground v.1.13,2013-05-10 20:36:00,
2013-05-10 16:42:00,83.6,56.0,29.89,NNW,347,0.0,0.0,39,0.00,,,0.00,Wunderground v.1.13,2013-05-10 20:42:00,
2013-05-10 16:48:00,83.6,58.7,29.89,WNW,295,0.0,0.0,43,0.00,,,0.00,Wunderground v.1.13,2013-05-10 20:48:00,
2013-05-10 16:54:00,83.6,55.3,29.89,ENE,73,0.0,0.0,38,0.00,,,0.00,Wunderground v.1.13,2013-05-10 20:54:00,
2013-05-10 17:00:00,83.6,57.4,29.89,NE,37,0.0,0.0,41,0.00,,,0.00,Wunderground v.1.13,2013-05-10 21:00:00,
2013-05-10 17:06:00,83.8,58.3,29.88,NE,38,0.0,0.0,42,0.00,,,0.00,Wunderground v.1.13,2013-05-10 21:06:00,
2013-05-10 17:12:00,83.8,56.9,29.88,WNW,285,0.0,0.0,40,0.00,,,0.00,Wunderground v.1.13,2013-05-10 21:12:00,
2013-05-10 17:18:00,83.8,57.6,29.88,West,277,0.0,0.0,41,0.00,,,0.00,Wunderground v.1.13,2013-05-10 21:18:00,
2013-05-10 17:24:00,83.6,58.7,29.88,WSW,254,0.0,0.0,43,0.00,,,0.00,Wunderground v.1.13,2013-05-10 21:24:00,
2013-05-10 17:30:00,83.6,58.7,29.88,WNW,301,0.0,1.0,43,0.00,,,0.00,Wunderground v.1.13,2013-05-10 21:30:00,
2013-05-10 17:36:00,83.4,58.6,29.87,WNW,301,0.0,0.0,43,0.00,,,0.00,Wunderground v.1.13,2013-05-10 21:36:00,
2013-05-10 17:42:00,83.2,58.4,29.87,WNW,301,0.0,0.0,43,0.00,,,0.00,Wunderground v.1.13,2013-05-10 21:42:00,
2013-05-10 17:48:00,83.2,59.0,29.87,WNW,301,0.0,0.0,44,0.00,,,0.00,Wunderground v.1.13,2013-05-10 21:48:00,
2013-05-10 17:54:00,83.2,58.4,29.87,WNW,301,0.0,0.0,43,0.00,,,0.00,Wunderground v.1.13,2013-05-10 21:54:00,
2013-05-10 17:58:00,83.0,59.5,29.87,WNW,301,0.0,0.0,45,0.00,,,0.00,Wunderground v.1.13,2013-05-10 21:58:00,
2013-05-10 18:00:00,83.0,59.5,29.87,WNW,301,0.0,0.0,45,0.00,,,0.00,Wunderground v.1.13,2013-05-10 22:00:00,
2013-05-10 18:02:00,83.0,59.5,29.87,WNW,301,0.0,0.0,45,0.00,,,0.00,Wunderground v.1.13,2013-05-10 22:02:00,
2013-05-10 18:08:00,83.0,59.5,29.87,WNW,301,0.0,0.0,45,0.00,,,0.00,Wunderground v.1.13,2013-05-10 22:08:00,
2013-05-10 18:14:00,82.8,58.7,29.87,WNW,301,0.0,0.0,44,0.00,,,0.00,Wunderground v.1.13,2013-05-10 22:14:00,
2013-05-10 18:20:00,82.8,59.3,29.87,WNW,301,0.0,0.0,45,0.00,,,0.00,Wunderground v.1.13,2013-05-10 22:20:00,
2013-05-10 18:26:00,82.6,59.7,29.87,WNW,301,0.0,0.0,46,0.00,,,0.00,Wunderground v.1.13,2013-05-10 22:26:00,
2013-05-10 18:28:00,82.6,59.7,29.87,WNW,301,0.0,0.0,46,0.00,,,0.00,Wunderground v.1.13,2013-05-10 22:28:00,
2013-05-10 18:34:00,82.6,60.3,29.86,WNW,301,0.0,0.0,47,0.00,,,0.00,Wunderground v.1.13,2013-05-10 22:34:00,
2013-05-10 18:40:00,82.4,60.1,29.86,WNW,301,0.0,0.0,47,0.00,,,0.00,Wunderground v.1.13,2013-05-10 22:40:00,
2013-05-10 18:46:00,82.4,60.7,29.87,WNW,301,0.0,0.0,48,0.00,,,0.00,Wunderground v.1.13,2013-05-10 22:46:00,
2013-05-10 18:52:00,82.2,61.1,29.87,WNW,301,0.0,0.0,49,0.00,,,0.00,Wunderground v.1.13,2013-05-10 22:52:00,
2013-05-10 18:58:00,82.2,61.1,29.87,WNW,301,0.0,0.0,49,0.00,,,0.00,Wunderground v.1.13,2013-05-10 22:58:00,
2013-05-10 19:04:00,82.0,61.0,29.87,WNW,301,0.0,0.0,49,0.00,,,0.00,Wunderground v.1.13,2013-05-10 23:04:00,
2013-05-10 19:10:00,81.8,61.3,29.87,WNW,301,0.0,0.0,50,0.00,,,0.00,Wunderground v.1.13,2013-05-10 23:10:00,
2013-05-10 19:16:00,81.8,61.9,29.87,WNW,301,0.0,0.0,51,0.00,,,0.00,Wunderground v.1.13,2013-05-10 23:16:00,
2013-05-10 19:24:00,81.4,61.5,29.87,WNW,301,0.0,0.0,51,0.00,,,0.00,Wunderground v.1.13,2013-05-10 23:24:00,
2013-05-10 19:30:00,81.2,61.9,29.87,WNW,301,0.0,0.0,52,0.00,,,0.00,Wunderground v.1.13,2013-05-10 23:30:00,
2013-05-10 19:36:00,81.1,61.8,29.87,WNW,301,0.0,0.0,52,0.00,,,0.00,Wunderground v.1.13,2013-05-10 23:36:00,
2013-05-10 19:42:00,80.7,62.0,29.87,WNW,301,0.0,0.0,53,0.00,,,0.00,Wunderground v.1.13,2013-05-10 23:42:00,
2013-05-10 19:48:00,80.3,61.6,29.87,WNW,301,0.0,0.0,53,0.00,,,0.00,Wunderground v.1.13,2013-05-10 23:48:00,
2013-05-10 19:54:00,80.1,62.0,29.87,WNW,301,0.0,0.0,54,0.00,,,0.00,Wunderground v.1.13,2013-05-10 23:54:00,
2013-05-10 20:00:00,79.8,62.2,29.87,WNW,301,0.0,0.0,55,0.00,,,0.00,Wunderground v.1.13,2013-05-11 00:00:00,
2013-05-10 20:06:00,79.4,61.3,29.87,WNW,301,0.0,0.0,54,0.00,,,0.00,Wunderground v.1.13,2013-05-11 00:06:00,
2013-05-10 20:12:00,79.0,62.5,29.87,WNW,301,0.0,0.0,57,0.00,,,0.00,Wunderground v.1.13,2013-05-11 00:12:00,
2013-05-10 20:18:00,78.5,63.9,29.87,WNW,301,0.0,0.0,61,0.00,,,0.00,Wunderground v.1.13,2013-05-11 00:18:00,
2013-05-10 20:24:00,78.1,62.6,29.87,WNW,301,0.0,0.0,59,0.00,,,0.00,Wunderground v.1.13,2013-05-11 00:24:00,
2013-05-10 20:30:00,77.6,62.1,29.87,WNW,301,0.0,0.0,59,0.00,,,0.00,Wunderground v.1.13,2013-05-11 00:30:00,
2013-05-10 20:36:00,77.2,62.7,29.87,WNW,301,0.0,0.0,61,0.00,,,0.00,Wunderground v.1.13,2013-05-11 00:36:00,
2013-05-10 20:42:00,76.8,62.8,29.87,WNW,301,0.0,0.0,62,0.00,,,0.00,Wunderground v.1.13,2013-05-11 00:42:00,
2013-05-10 20:48:00,76.3,62.8,29.88,WNW,301,0.0,0.0,63,0.00,,,0.00,Wunderground v.1.13,2013-05-11 00:48:00,
2013-05-10 20:54:00,75.8,62.8,29.88,WNW,301,0.0,0.0,64,0.00,,,0.00,Wunderground v.1.13,2013-05-11 00:54:00,
2013-05-10 21:00:00,75.4,62.8,29.88,WNW,301,0.0,0.0,65,0.00,,,0.00,Wunderground v.1.13,2013-05-11 01:00:00,
2013-05-10 21:06:00,74.9,62.3,29.88,WNW,298,0.0,0.0,65,0.00,,,0.00,Wunderground v.1.13,2013-05-11 01:06:00,
2013-05-10 21:12:00,74.7,62.6,29.88,WNW,301,0.0,0.0,66,0.00,,,0.00,Wunderground v.1.13,2013-05-11 01:12:00,
2013-05-10 21:18:00,74.4,62.7,29.88,WNW,301,0.0,0.0,67,0.00,,,0.00,Wunderground v.1.13,2013-05-11 01:18:00,
2013-05-10 21:24:00,74.0,62.3,29.88,WNW,301,0.0,0.0,67,0.00,,,0.00,Wunderground v.1.13,2013-05-11 01:24:00,
2013-05-10 21:30:00,73.7,62.5,29.88,WNW,301,0.0,0.0,68,0.00,,,0.00,Wunderground v.1.13,2013-05-11 01:30:00,
2013-05-10 21:36:00,73.3,62.5,29.89,WNW,301,0.0,0.0,69,0.00,,,0.00,Wunderground v.1.13,2013-05-11 01:36:00,
2013-05-10 21:42:00,73.2,62.8,29.89,WNW,301,0.0,0.0,70,0.00,,,0.00,Wunderground v.1.13,2013-05-11 01:42:00,
2013-05-10 21:48:00,72.8,62.4,29.89,WNW,301,0.0,0.0,70,0.00,,,0.00,Wunderground v.1.13,2013-05-11 01:48:00,
2013-05-10 21:54:00,72.5,62.2,29.89,WNW,301,0.0,0.0,70,0.00,,,0.00,Wunderground v.1.13,2013-05-11 01:54:00,
2013-05-10 22:00:00,72.3,62.4,29.89,WNW,301,0.0,0.0,71,0.00,,,0.00,Wunderground v.1.13,2013-05-11 02:00:00,
2013-05-10 22:06:00,72.1,62.2,29.89,WNW,301,0.0,0.0,71,0.00,,,0.00,Wunderground v.1.13,2013-05-11 02:06:00,
2013-05-10 22:12:00,72.0,62.5,29.89,WNW,301,0.0,0.0,72,0.00,,,0.00,Wunderground v.1.13,2013-05-11 02:12:00,
2013-05-10 22:18:00,71.6,62.1,29.89,WNW,301,0.0,0.0,72,0.00,,,0.00,Wunderground v.1.13,2013-05-11 02:18:00,
2013-05-10 22:24:00,71.5,62.4,29.89,WNW,301,0.0,0.0,73,0.00,,,0.00,Wunderground v.1.13,2013-05-11 02:24:00,
2013-05-10 22:30:00,71.3,62.2,29.89,WNW,301,0.0,0.0,73,0.00,,,0.00,Wunderground v.1.13,2013-05-11 02:30:00,
2013-05-10 22:36:00,71.1,62.0,29.89,WNW,301,0.0,0.0,73,0.00,,,0.00,Wunderground v.1.13,2013-05-11 02:36:00,
2013-05-10 22:42:00,71.1,62.0,29.89,WNW,301,0.0,0.0,73,0.00,,,0.00,Wunderground v.1.13,2013-05-11 02:42:00,
2013-05-10 22:48:00,70.9,61.8,29.89,WNW,301,0.0,0.0,73,0.00,,,0.00,Wunderground v.1.13,2013-05-11 02:48:00,
2013-05-10 22:54:00,70.8,61.7,29.89,WNW,301,0.0,0.0,73,0.00,,,0.00,Wunderground v.1.13,2013-05-11 02:54:00,
2013-05-10 23:00:00,70.6,61.9,29.89,WNW,301,0.0,0.0,74,0.00,,,0.00,Wunderground v.1.13,2013-05-11 03:00:00,
2013-05-10 23:06:00,70.6,61.9,29.88,WNW,301,0.0,0.0,74,0.00,,,0.00,Wunderground v.1.13,2013-05-11 03:06:00,
2013-05-10 23:12:00,70.6,61.5,29.88,WNW,301,0.0,0.0,73,0.00,,,0.00,Wunderground v.1.13,2013-05-11 03:12:00,
2013-05-10 23:18:00,70.6,61.9,29.88,WNW,301,0.0,0.0,74,0.00,,,0.00,Wunderground v.1.13,2013-05-11 03:18:00,
2013-05-10 23:24:00,70.6,61.5,29.88,WNW,301,0.0,0.0,73,0.00,,,0.00,Wunderground v.1.13,2013-05-11 03:24:00,
2013-05-10 23:30:00,70.6,61.5,29.88,WNW,301,0.0,0.0,73,0.00,,,0.00,Wunderground v.1.13,2013-05-11 03:30:00,
2013-05-10 23:36:00,70.8,61.7,29.88,WNW,301,0.0,0.0,73,0.00,,,0.00,Wunderground v.1.13,2013-05-11 03:36:00,
2013-05-10 23:42:00,70.9,61.8,29.88,WNW,301,0.0,0.0,73,0.00,,,0.00,Wunderground v.1.13,2013-05-11 03:42:00,
2013-05-10 23:48:00,71.1,62.0,29.87,WNW,301,0.0,0.0,73,0.00,,,0.00,Wunderground v.1.13,2013-05-11 03:48:00,
2013-05-10 23:54:00,71.1,62.0,29.87,WNW,301,0.0,0.0,73,0.00,,,0.00,Wunderground v.1.13,2013-05-11 03:54:00,